sensor_id;sensor_type;location;lat;lon;timestamp;P1;durP1;ratioP1;P2;durP2;ratioP2
63567;SDS011;49715;42.386;20.434;2023-03-02T00:00:54;46.75;;;26.85;;
63567;SDS011;49715;42.386;20.434;2023-03-02T00:03:26;37.45;;;25.55;;
63567;SDS011;49715;42.386;20.434;2023-03-02T00:05:53;38.85;;;27.60;;
63567;SDS011;49715;42.386;20.434;2023-03-02T00:08:21;40.97;;;29.05;;
63567;SDS011;49715;42.386;20.434;2023-03-02T00:10:48;40.38;;;27.35;;
63567;SDS011;49715;42.386;20.434;2023-03-02T00:13:14;40.45;;;27.85;;
63567;SDS011;49715;42.386;20.434;2023-03-02T00:15:41;44.40;;;28.63;;
63567;SDS011;49715;42.386;20.434;2023-03-02T00:18:07;42.70;;;28.77;;
63567;SDS011;49715;42.386;20.434;2023-03-02T00:20:34;45.13;;;29.90;;
63567;SDS011;49715;42.386;20.434;2023-03-02T00:23:00;46.25;;;31.27;;
63567;SDS011;49715;42.386;20.434;2023-03-02T00:25:27;48.33;;;28.93;;
63567;SDS011;49715;42.386;20.434;2023-03-02T00:27:53;40.53;;;28.05;;
63567;SDS011;49715;42.386;20.434;2023-03-02T00:30:20;41.63;;;28.13;;
63567;SDS011;49715;42.386;20.434;2023-03-02T00:32:46;38.58;;;27.05;;
63567;SDS011;49715;42.386;20.434;2023-03-02T00:35:13;43.17;;;27.20;;
63567;SDS011;49715;42.386;20.434;2023-03-02T00:37:39;44.53;;;26.67;;
63567;SDS011;49715;42.386;20.434;2023-03-02T00:40:06;45.55;;;27.00;;
63567;SDS011;49715;42.386;20.434;2023-03-02T00:42:35;40.47;;;26.65;;
63567;SDS011;49715;42.386;20.434;2023-03-02T00:45:03;43.75;;;27.23;;
63567;SDS011;49715;42.386;20.434;2023-03-02T00:47:34;45.95;;;26.35;;
63567;SDS011;49715;42.386;20.434;2023-03-02T00:50:01;47.22;;;27.20;;
63567;SDS011;49715;42.386;20.434;2023-03-02T00:52:29;42.63;;;27.42;;
63567;SDS011;49715;42.386;20.434;2023-03-02T00:54:56;40.65;;;26.20;;
63567;SDS011;49715;42.386;20.434;2023-03-02T00:57:23;38.60;;;25.33;;
63567;SDS011;49715;42.386;20.434;2023-03-02T00:59:49;39.15;;;27.00;;
63567;SDS011;49715;42.386;20.434;2023-03-02T01:02:31;46.85;;;27.52;;
63567;SDS011;49715;42.386;20.434;2023-03-02T01:04:57;41.50;;;26.98;;
63567;SDS011;49715;42.386;20.434;2023-03-02T01:09:53;40.22;;;26.02;;
63567;SDS011;49715;42.386;20.434;2023-03-02T01:12:20;41.23;;;25.83;;
63567;SDS011;49715;42.386;20.434;2023-03-02T01:14:47;42.17;;;27.27;;
63567;SDS011;49715;42.386;20.434;2023-03-02T01:17:15;41.45;;;26.10;;
63567;SDS011;49715;42.386;20.434;2023-03-02T01:19:42;41.83;;;26.53;;
63567;SDS011;49715;42.386;20.434;2023-03-02T01:22:08;44.80;;;26.38;;
63567;SDS011;49715;42.386;20.434;2023-03-02T01:27:02;46.13;;;25.20;;
63567;SDS011;49715;42.386;20.434;2023-03-02T01:29:29;40.63;;;25.45;;
63567;SDS011;49715;42.386;20.434;2023-03-02T01:31:55;39.37;;;25.63;;
63567;SDS011;49715;42.386;20.434;2023-03-02T01:34:22;45.33;;;26.17;;
63567;SDS011;49715;42.386;20.434;2023-03-02T01:36:48;38.15;;;24.92;;
63567;SDS011;49715;42.386;20.434;2023-03-02T01:39:15;38.50;;;25.92;;
63567;SDS011;49715;42.386;20.434;2023-03-02T01:41:44;38.72;;;25.92;;
63567;SDS011;49715;42.386;20.434;2023-03-02T01:46:57;39.13;;;26.30;;
63567;SDS011;49715;42.386;20.434;2023-03-02T01:51:56;45.42;;;26.27;;
63567;SDS011;49715;42.386;20.434;2023-03-02T01:54:25;48.10;;;26.90;;
63567;SDS011;49715;42.386;20.434;2023-03-02T01:56:56;42.53;;;26.40;;
63567;SDS011;49715;42.386;20.434;2023-03-02T01:59:25;39.67;;;27.02;;
63567;SDS011;49715;42.386;20.434;2023-03-02T02:01:55;39.13;;;26.00;;
63567;SDS011;49715;42.386;20.434;2023-03-02T02:04:25;41.55;;;26.73;;
63567;SDS011;49715;42.386;20.434;2023-03-02T02:06:58;48.17;;;27.75;;
63567;SDS011;49715;42.386;20.434;2023-03-02T02:09:38;40.90;;;26.65;;
63567;SDS011;49715;42.386;20.434;2023-03-02T02:12:13;45.08;;;28.55;;
63567;SDS011;49715;42.386;20.434;2023-03-02T02:14:41;44.63;;;28.00;;
63567;SDS011;49715;42.386;20.434;2023-03-02T02:17:08;42.78;;;27.85;;
63567;SDS011;49715;42.386;20.434;2023-03-02T02:22:48;40.67;;;27.50;;
63567;SDS011;49715;42.386;20.434;2023-03-02T02:28:10;39.47;;;27.25;;
63567;SDS011;49715;42.386;20.434;2023-03-02T02:30:41;42.35;;;27.92;;
63567;SDS011;49715;42.386;20.434;2023-03-02T02:33:12;45.25;;;28.05;;
63567;SDS011;49715;42.386;20.434;2023-03-02T02:35:44;46.35;;;28.27;;
63567;SDS011;49715;42.386;20.434;2023-03-02T02:38:13;50.55;;;28.10;;
63567;SDS011;49715;42.386;20.434;2023-03-02T02:43:12;45.85;;;27.85;;
63567;SDS011;49715;42.386;20.434;2023-03-02T02:45:41;50.22;;;28.60;;
63567;SDS011;49715;42.386;20.434;2023-03-02T02:48:09;50.17;;;27.48;;
63567;SDS011;49715;42.386;20.434;2023-03-02T02:50:40;46.40;;;27.50;;
63567;SDS011;49715;42.386;20.434;2023-03-02T02:55:40;51.55;;;27.02;;
63567;SDS011;49715;42.386;20.434;2023-03-02T03:00:50;43.40;;;26.98;;
63567;SDS011;49715;42.386;20.434;2023-03-02T03:03:26;41.20;;;24.77;;
63567;SDS011;49715;42.386;20.434;2023-03-02T03:05:59;40.90;;;24.90;;
63567;SDS011;49715;42.386;20.434;2023-03-02T03:11:39;41.58;;;25.23;;
63567;SDS011;49715;42.386;20.434;2023-03-02T03:16:42;41.17;;;25.77;;
63567;SDS011;49715;42.386;20.434;2023-03-02T03:19:12;42.35;;;26.77;;
63567;SDS011;49715;42.386;20.434;2023-03-02T03:21:54;46.55;;;27.42;;
63567;SDS011;49715;42.386;20.434;2023-03-02T03:24:24;44.00;;;26.08;;
63567;SDS011;49715;42.386;20.434;2023-03-02T03:26:53;42.45;;;27.27;;
63567;SDS011;49715;42.386;20.434;2023-03-02T03:31:55;39.88;;;25.33;;
63567;SDS011;49715;42.386;20.434;2023-03-02T03:34:23;44.65;;;26.15;;
63567;SDS011;49715;42.386;20.434;2023-03-02T03:36:51;44.75;;;25.70;;
63567;SDS011;49715;42.386;20.434;2023-03-02T03:39:18;40.20;;;25.83;;
63567;SDS011;49715;42.386;20.434;2023-03-02T03:41:46;42.05;;;26.40;;
63567;SDS011;49715;42.386;20.434;2023-03-02T03:44:13;43.13;;;26.10;;
63567;SDS011;49715;42.386;20.434;2023-03-02T03:46:42;40.17;;;25.58;;
63567;SDS011;49715;42.386;20.434;2023-03-02T03:49:08;47.65;;;26.58;;
63567;SDS011;49715;42.386;20.434;2023-03-02T03:51:35;42.08;;;24.92;;
63567;SDS011;49715;42.386;20.434;2023-03-02T03:54:04;43.40;;;25.90;;
63567;SDS011;49715;42.386;20.434;2023-03-02T03:56:38;41.63;;;27.05;;
63567;SDS011;49715;42.386;20.434;2023-03-02T03:59:07;46.90;;;26.13;;
63567;SDS011;49715;42.386;20.434;2023-03-02T04:01:45;43.42;;;26.20;;
63567;SDS011;49715;42.386;20.434;2023-03-02T04:04:26;42.22;;;25.83;;
63567;SDS011;49715;42.386;20.434;2023-03-02T04:06:55;44.55;;;26.60;;
63567;SDS011;49715;42.386;20.434;2023-03-02T04:09:23;41.13;;;25.95;;
63567;SDS011;49715;42.386;20.434;2023-03-02T04:11:52;44.33;;;26.63;;
63567;SDS011;49715;42.386;20.434;2023-03-02T04:14:21;44.45;;;27.02;;
63567;SDS011;49715;42.386;20.434;2023-03-02T04:16:49;40.40;;;25.15;;
63567;SDS011;49715;42.386;20.434;2023-03-02T04:19:17;40.92;;;25.92;;
63567;SDS011;49715;42.386;20.434;2023-03-02T04:21:48;41.13;;;24.65;;
63567;SDS011;49715;42.386;20.434;2023-03-02T04:24:19;42.78;;;26.25;;
63567;SDS011;49715;42.386;20.434;2023-03-02T04:26:47;37.65;;;26.33;;
63567;SDS011;49715;42.386;20.434;2023-03-02T04:29:15;46.03;;;26.05;;
63567;SDS011;49715;42.386;20.434;2023-03-02T04:31:42;42.38;;;26.10;;
63567;SDS011;49715;42.386;20.434;2023-03-02T04:34:10;45.03;;;26.08;;
63567;SDS011;49715;42.386;20.434;2023-03-02T04:36:39;37.47;;;24.90;;
63567;SDS011;49715;42.386;20.434;2023-03-02T04:39:09;43.10;;;25.48;;
63567;SDS011;49715;42.386;20.434;2023-03-02T04:41:37;41.58;;;26.35;;
63567;SDS011;49715;42.386;20.434;2023-03-02T04:44:04;43.13;;;26.00;;
63567;SDS011;49715;42.386;20.434;2023-03-02T04:46:30;44.72;;;25.83;;
63567;SDS011;49715;42.386;20.434;2023-03-02T04:48:59;43.53;;;26.33;;
63567;SDS011;49715;42.386;20.434;2023-03-02T04:51:27;39.92;;;25.75;;
63567;SDS011;49715;42.386;20.434;2023-03-02T04:53:57;43.85;;;25.55;;
63567;SDS011;49715;42.386;20.434;2023-03-02T04:56:26;44.42;;;27.42;;
63567;SDS011;49715;42.386;20.434;2023-03-02T04:58:53;45.38;;;26.77;;
63567;SDS011;49715;42.386;20.434;2023-03-02T05:01:20;50.10;;;27.60;;
63567;SDS011;49715;42.386;20.434;2023-03-02T05:03:50;45.72;;;28.45;;
63567;SDS011;49715;42.386;20.434;2023-03-02T05:06:20;48.60;;;28.08;;
63567;SDS011;49715;42.386;20.434;2023-03-02T05:08:46;42.88;;;26.90;;
63567;SDS011;49715;42.386;20.434;2023-03-02T05:11:14;47.65;;;27.15;;
63567;SDS011;49715;42.386;20.434;2023-03-02T05:13:48;45.90;;;28.52;;
63567;SDS011;49715;42.386;20.434;2023-03-02T05:16:18;41.95;;;28.05;;
63567;SDS011;49715;42.386;20.434;2023-03-02T05:21:12;42.13;;;25.63;;
63567;SDS011;49715;42.386;20.434;2023-03-02T05:23:45;44.55;;;26.75;;
63567;SDS011;49715;42.386;20.434;2023-03-02T05:26:14;52.28;;;27.55;;
63567;SDS011;49715;42.386;20.434;2023-03-02T05:28:43;47.03;;;27.48;;
63567;SDS011;49715;42.386;20.434;2023-03-02T05:31:13;40.70;;;25.67;;
63567;SDS011;49715;42.386;20.434;2023-03-02T05:33:44;48.47;;;26.90;;
63567;SDS011;49715;42.386;20.434;2023-03-02T05:36:10;41.22;;;27.60;;
63567;SDS011;49715;42.386;20.434;2023-03-02T05:38:37;41.75;;;28.55;;
63567;SDS011;49715;42.386;20.434;2023-03-02T05:41:03;42.95;;;27.35;;
63567;SDS011;49715;42.386;20.434;2023-03-02T05:43:30;44.75;;;26.33;;
63567;SDS011;49715;42.386;20.434;2023-03-02T05:45:57;46.58;;;29.80;;
63567;SDS011;49715;42.386;20.434;2023-03-02T05:48:25;44.40;;;27.58;;
63567;SDS011;49715;42.386;20.434;2023-03-02T05:50:53;45.10;;;26.48;;
63567;SDS011;49715;42.386;20.434;2023-03-02T05:53:19;40.60;;;26.75;;
63567;SDS011;49715;42.386;20.434;2023-03-02T05:55:46;41.13;;;27.05;;
63567;SDS011;49715;42.386;20.434;2023-03-02T05:58:14;42.47;;;26.98;;
63567;SDS011;49715;42.386;20.434;2023-03-02T06:00:42;47.03;;;27.02;;
63567;SDS011;49715;42.386;20.434;2023-03-02T06:03:12;43.05;;;28.05;;
63567;SDS011;49715;42.386;20.434;2023-03-02T06:05:38;48.05;;;27.95;;
63567;SDS011;49715;42.386;20.434;2023-03-02T06:08:05;44.15;;;28.08;;
63567;SDS011;49715;42.386;20.434;2023-03-02T06:10:32;40.13;;;26.67;;
63567;SDS011;49715;42.386;20.434;2023-03-02T06:15:25;54.10;;;29.57;;
63567;SDS011;49715;42.386;20.434;2023-03-02T06:17:58;50.30;;;30.42;;
63567;SDS011;49715;42.386;20.434;2023-03-02T06:20:25;53.60;;;32.38;;
63567;SDS011;49715;42.386;20.434;2023-03-02T06:22:51;50.97;;;28.45;;
63567;SDS011;49715;42.386;20.434;2023-03-02T06:25:22;46.10;;;29.75;;
63567;SDS011;49715;42.386;20.434;2023-03-02T06:27:50;46.13;;;28.27;;
63567;SDS011;49715;42.386;20.434;2023-03-02T06:30:19;44.20;;;28.00;;
63567;SDS011;49715;42.386;20.434;2023-03-02T06:32:49;43.22;;;29.02;;
63567;SDS011;49715;42.386;20.434;2023-03-02T06:35:16;48.72;;;28.25;;
63567;SDS011;49715;42.386;20.434;2023-03-02T06:37:42;51.55;;;32.22;;
63567;SDS011;49715;42.386;20.434;2023-03-02T06:40:10;51.58;;;30.13;;
63567;SDS011;49715;42.386;20.434;2023-03-02T06:42:39;45.90;;;28.77;;
63567;SDS011;49715;42.386;20.434;2023-03-02T06:45:07;44.58;;;29.15;;
63567;SDS011;49715;42.386;20.434;2023-03-02T06:47:37;47.13;;;29.70;;
63567;SDS011;49715;42.386;20.434;2023-03-02T06:50:04;45.20;;;28.70;;
63567;SDS011;49715;42.386;20.434;2023-03-02T06:52:33;47.85;;;29.55;;
63567;SDS011;49715;42.386;20.434;2023-03-02T06:55:00;52.95;;;30.92;;
63567;SDS011;49715;42.386;20.434;2023-03-02T06:57:29;50.90;;;29.13;;
63567;SDS011;49715;42.386;20.434;2023-03-02T07:00:00;50.17;;;29.77;;
63567;SDS011;49715;42.386;20.434;2023-03-02T07:02:35;43.47;;;28.13;;
63567;SDS011;49715;42.386;20.434;2023-03-02T07:05:08;43.95;;;29.40;;
63567;SDS011;49715;42.386;20.434;2023-03-02T07:07:34;49.22;;;30.60;;
63567;SDS011;49715;42.386;20.434;2023-03-02T07:10:02;43.28;;;30.30;;
63567;SDS011;49715;42.386;20.434;2023-03-02T07:12:29;49.53;;;31.45;;
63567;SDS011;49715;42.386;20.434;2023-03-02T07:14:56;54.97;;;33.50;;
63567;SDS011;49715;42.386;20.434;2023-03-02T07:17:23;49.10;;;32.22;;
63567;SDS011;49715;42.386;20.434;2023-03-02T07:19:50;53.33;;;33.90;;
63567;SDS011;49715;42.386;20.434;2023-03-02T07:22:17;59.20;;;34.13;;
63567;SDS011;49715;42.386;20.434;2023-03-02T07:24:44;54.13;;;34.92;;
63567;SDS011;49715;42.386;20.434;2023-03-02T07:27:11;57.03;;;37.92;;
63567;SDS011;49715;42.386;20.434;2023-03-02T07:32:37;51.92;;;33.65;;
63567;SDS011;49715;42.386;20.434;2023-03-02T07:35:04;49.30;;;31.67;;
63567;SDS011;49715;42.386;20.434;2023-03-02T07:37:30;48.00;;;31.70;;
63567;SDS011;49715;42.386;20.434;2023-03-02T07:39:57;49.75;;;32.65;;
63567;SDS011;49715;42.386;20.434;2023-03-02T07:42:24;43.33;;;30.00;;
63567;SDS011;49715;42.386;20.434;2023-03-02T07:44:55;47.35;;;30.85;;
63567;SDS011;49715;42.386;20.434;2023-03-02T07:47:22;49.85;;;31.83;;
63567;SDS011;49715;42.386;20.434;2023-03-02T07:49:51;48.20;;;31.58;;
63567;SDS011;49715;42.386;20.434;2023-03-02T07:52:20;48.58;;;32.00;;
63567;SDS011;49715;42.386;20.434;2023-03-02T07:54:47;48.30;;;31.05;;
63567;SDS011;49715;42.386;20.434;2023-03-02T07:57:16;46.10;;;30.00;;
63567;SDS011;49715;42.386;20.434;2023-03-02T07:59:44;43.50;;;30.33;;
63567;SDS011;49715;42.386;20.434;2023-03-02T08:02:14;43.50;;;28.45;;
63567;SDS011;49715;42.386;20.434;2023-03-02T08:04:45;38.38;;;26.45;;
63567;SDS011;49715;42.386;20.434;2023-03-02T08:07:12;45.28;;;26.90;;
63567;SDS011;49715;42.386;20.434;2023-03-02T08:09:42;43.88;;;27.40;;
63567;SDS011;49715;42.386;20.434;2023-03-02T08:12:09;40.08;;;25.10;;
63567;SDS011;49715;42.386;20.434;2023-03-02T08:14:37;41.08;;;26.10;;
63567;SDS011;49715;42.386;20.434;2023-03-02T08:17:04;38.30;;;26.98;;
63567;SDS011;49715;42.386;20.434;2023-03-02T08:19:35;43.70;;;28.02;;
63567;SDS011;49715;42.386;20.434;2023-03-02T08:22:01;42.10;;;26.77;;
63567;SDS011;49715;42.386;20.434;2023-03-02T08:24:28;41.78;;;26.55;;
63567;SDS011;49715;42.386;20.434;2023-03-02T08:27:02;39.88;;;27.23;;
63567;SDS011;49715;42.386;20.434;2023-03-02T08:29:29;40.13;;;27.63;;
63567;SDS011;49715;42.386;20.434;2023-03-02T08:31:57;47.33;;;30.58;;
63567;SDS011;49715;42.386;20.434;2023-03-02T08:34:25;51.15;;;35.13;;
63567;SDS011;49715;42.386;20.434;2023-03-02T08:36:52;55.08;;;35.75;;
63567;SDS011;49715;42.386;20.434;2023-03-02T08:39:20;49.63;;;34.53;;
63567;SDS011;49715;42.386;20.434;2023-03-02T08:41:49;59.63;;;36.97;;
63567;SDS011;49715;42.386;20.434;2023-03-02T08:44:16;49.25;;;32.33;;
63567;SDS011;49715;42.386;20.434;2023-03-02T08:46:46;47.42;;;33.50;;
63567;SDS011;49715;42.386;20.434;2023-03-02T08:49:17;47.78;;;33.08;;
63567;SDS011;49715;42.386;20.434;2023-03-02T08:51:44;49.65;;;33.15;;
63567;SDS011;49715;42.386;20.434;2023-03-02T08:54:12;50.85;;;34.58;;
63567;SDS011;49715;42.386;20.434;2023-03-02T08:56:42;48.20;;;34.17;;
63567;SDS011;49715;42.386;20.434;2023-03-02T08:59:12;46.33;;;28.92;;
63567;SDS011;49715;42.386;20.434;2023-03-02T09:01:39;46.28;;;30.70;;
63567;SDS011;49715;42.386;20.434;2023-03-02T09:04:07;37.78;;;28.95;;
63567;SDS011;49715;42.386;20.434;2023-03-02T09:06:36;43.42;;;29.15;;
63567;SDS011;49715;42.386;20.434;2023-03-02T09:09:08;42.70;;;28.17;;
63567;SDS011;49715;42.386;20.434;2023-03-02T09:11:37;33.78;;;26.27;;
63567;SDS011;49715;42.386;20.434;2023-03-02T09:14:03;32.38;;;23.23;;
63567;SDS011;49715;42.386;20.434;2023-03-02T09:16:30;35.70;;;23.40;;
63567;SDS011;49715;42.386;20.434;2023-03-02T09:18:57;41.05;;;25.90;;
63567;SDS011;49715;42.386;20.434;2023-03-02T09:21:24;38.00;;;28.25;;
63567;SDS011;49715;42.386;20.434;2023-03-02T09:23:51;44.15;;;30.95;;
63567;SDS011;49715;42.386;20.434;2023-03-02T09:26:22;30.80;;;25.17;;
63567;SDS011;49715;42.386;20.434;2023-03-02T09:28:49;27.90;;;20.63;;
63567;SDS011;49715;42.386;20.434;2023-03-02T09:31:16;26.15;;;20.95;;
63567;SDS011;49715;42.386;20.434;2023-03-02T09:33:42;28.13;;;22.77;;
63567;SDS011;49715;42.386;20.434;2023-03-02T09:36:11;37.90;;;23.05;;
63567;SDS011;49715;42.386;20.434;2023-03-02T09:38:43;21.42;;;14.38;;
63567;SDS011;49715;42.386;20.434;2023-03-02T09:54:30;19.25;;;12.00;;
63567;SDS011;49715;42.386;20.434;2023-03-02T09:56:58;17.63;;;12.82;;
63567;SDS011;49715;42.386;20.434;2023-03-02T09:59:26;16.10;;;12.70;;
63567;SDS011;49715;42.386;20.434;2023-03-02T10:02:05;21.02;;;14.45;;
63567;SDS011;49715;42.386;20.434;2023-03-02T10:04:52;21.95;;;14.50;;
63567;SDS011;49715;42.386;20.434;2023-03-02T10:07:32;21.45;;;13.98;;
63567;SDS011;49715;42.386;20.434;2023-03-02T10:12:52;20.85;;;13.80;;
63567;SDS011;49715;42.386;20.434;2023-03-02T10:15:25;22.23;;;15.27;;
63567;SDS011;49715;42.386;20.434;2023-03-02T10:26:42;22.77;;;14.85;;
63567;SDS011;49715;42.386;20.434;2023-03-02T10:32:13;23.67;;;15.77;;
63567;SDS011;49715;42.386;20.434;2023-03-02T10:34:48;20.45;;;14.60;;
63567;SDS011;49715;42.386;20.434;2023-03-02T10:37:18;23.67;;;16.10;;
63567;SDS011;49715;42.386;20.434;2023-03-02T10:39:50;22.92;;;15.57;;
63567;SDS011;49715;42.386;20.434;2023-03-02T10:42:38;28.58;;;16.52;;
63567;SDS011;49715;42.386;20.434;2023-03-02T10:45:28;23.98;;;17.23;;
63567;SDS011;49715;42.386;20.434;2023-03-02T10:48:04;25.23;;;16.55;;
63567;SDS011;49715;42.386;20.434;2023-03-02T10:50:30;27.35;;;17.85;;
63567;SDS011;49715;42.386;20.434;2023-03-02T10:52:59;26.08;;;18.02;;
63567;SDS011;49715;42.386;20.434;2023-03-02T10:55:26;22.80;;;17.02;;
63567;SDS011;49715;42.386;20.434;2023-03-02T10:58:02;28.95;;;17.63;;
63567;SDS011;49715;42.386;20.434;2023-03-02T11:00:32;24.90;;;17.85;;
63567;SDS011;49715;42.386;20.434;2023-03-02T11:03:01;22.05;;;16.52;;
63567;SDS011;49715;42.386;20.434;2023-03-02T11:05:38;25.75;;;18.20;;
63567;SDS011;49715;42.386;20.434;2023-03-02T11:08:22;24.42;;;17.60;;
63567;SDS011;49715;42.386;20.434;2023-03-02T11:10:55;23.60;;;17.02;;
63567;SDS011;49715;42.386;20.434;2023-03-02T11:13:26;25.17;;;17.50;;
63567;SDS011;49715;42.386;20.434;2023-03-02T11:15:57;25.05;;;17.10;;
63567;SDS011;49715;42.386;20.434;2023-03-02T11:21:05;22.33;;;16.08;;
63567;SDS011;49715;42.386;20.434;2023-03-02T11:29:13;24.55;;;17.73;;
63567;SDS011;49715;42.386;20.434;2023-03-02T11:35:17;24.08;;;17.55;;
63567;SDS011;49715;42.386;20.434;2023-03-02T11:37:45;24.30;;;17.17;;
63567;SDS011;49715;42.386;20.434;2023-03-02T11:40:18;27.95;;;16.95;;
63567;SDS011;49715;42.386;20.434;2023-03-02T11:42:58;23.30;;;16.67;;
63567;SDS011;49715;42.386;20.434;2023-03-02T11:45:27;32.72;;;17.80;;
63567;SDS011;49715;42.386;20.434;2023-03-02T11:48:05;26.60;;;18.98;;
63567;SDS011;49715;42.386;20.434;2023-03-02T11:50:52;27.85;;;18.38;;
63567;SDS011;49715;42.386;20.434;2023-03-02T11:53:20;28.77;;;19.25;;
63567;SDS011;49715;42.386;20.434;2023-03-02T11:55:51;27.15;;;19.33;;
63567;SDS011;49715;42.386;20.434;2023-03-02T11:58:19;32.00;;;19.13;;
63567;SDS011;49715;42.386;20.434;2023-03-02T12:00:48;28.15;;;18.50;;
63567;SDS011;49715;42.386;20.434;2023-03-02T12:10:58;27.00;;;17.35;;
63567;SDS011;49715;42.386;20.434;2023-03-02T12:13:32;24.25;;;18.00;;
63567;SDS011;49715;42.386;20.434;2023-03-02T12:15:59;27.70;;;18.08;;
63567;SDS011;49715;42.386;20.434;2023-03-02T12:18:41;27.52;;;18.17;;
63567;SDS011;49715;42.386;20.434;2023-03-02T12:21:12;29.20;;;18.73;;
63567;SDS011;49715;42.386;20.434;2023-03-02T12:29:05;31.67;;;19.25;;
63567;SDS011;49715;42.386;20.434;2023-03-02T12:31:54;30.55;;;20.25;;
63567;SDS011;49715;42.386;20.434;2023-03-02T12:45:13;28.67;;;19.15;;
63567;SDS011;49715;42.386;20.434;2023-03-02T12:47:57;27.17;;;18.98;;
63567;SDS011;49715;42.386;20.434;2023-03-02T12:50:32;28.42;;;17.48;;
63567;SDS011;49715;42.386;20.434;2023-03-02T12:53:04;28.23;;;18.00;;
63567;SDS011;49715;42.386;20.434;2023-03-02T12:55:32;27.65;;;18.23;;
63567;SDS011;49715;42.386;20.434;2023-03-02T12:57:59;26.60;;;17.58;;
63567;SDS011;49715;42.386;20.434;2023-03-02T13:00:33;29.05;;;18.50;;
63567;SDS011;49715;42.386;20.434;2023-03-02T13:03:03;29.88;;;18.20;;
63567;SDS011;49715;42.386;20.434;2023-03-02T13:05:34;34.80;;;18.05;;
63567;SDS011;49715;42.386;20.434;2023-03-02T13:10:59;28.25;;;18.58;;
63567;SDS011;49715;42.386;20.434;2023-03-02T13:13:36;31.10;;;20.17;;
63567;SDS011;49715;42.386;20.434;2023-03-02T13:16:06;30.83;;;20.17;;
63567;SDS011;49715;42.386;20.434;2023-03-02T13:18:45;28.40;;;20.48;;
63567;SDS011;49715;42.386;20.434;2023-03-02T13:21:14;29.08;;;18.45;;
63567;SDS011;49715;42.386;20.434;2023-03-02T13:23:48;34.08;;;21.90;;
63567;SDS011;49715;42.386;20.434;2023-03-02T13:26:27;31.77;;;20.10;;
63567;SDS011;49715;42.386;20.434;2023-03-02T13:29:00;27.63;;;18.13;;
63567;SDS011;49715;42.386;20.434;2023-03-02T13:31:29;25.42;;;16.80;;
63567;SDS011;49715;42.386;20.434;2023-03-02T13:33:57;24.65;;;16.63;;
63567;SDS011;49715;42.386;20.434;2023-03-02T13:36:26;28.83;;;17.17;;
63567;SDS011;49715;42.386;20.434;2023-03-02T13:38:56;24.80;;;16.17;;
63567;SDS011;49715;42.386;20.434;2023-03-02T13:41:29;24.20;;;17.02;;
63567;SDS011;49715;42.386;20.434;2023-03-02T13:43:58;26.95;;;17.40;;
63567;SDS011;49715;42.386;20.434;2023-03-02T13:46:41;29.25;;;17.55;;
63567;SDS011;49715;42.386;20.434;2023-03-02T13:49:10;27.25;;;18.00;;
63567;SDS011;49715;42.386;20.434;2023-03-02T13:51:44;28.27;;;18.00;;
63567;SDS011;49715;42.386;20.434;2023-03-02T13:54:19;23.88;;;16.20;;
63567;SDS011;49715;42.386;20.434;2023-03-02T13:56:55;27.27;;;16.40;;
63567;SDS011;49715;42.386;20.434;2023-03-02T13:59:32;23.63;;;15.95;;
63567;SDS011;49715;42.386;20.434;2023-03-02T14:02:01;23.98;;;14.82;;
63567;SDS011;49715;42.386;20.434;2023-03-02T14:04:28;23.98;;;13.50;;
63567;SDS011;49715;42.386;20.434;2023-03-02T14:06:55;27.08;;;14.20;;
63567;SDS011;49715;42.386;20.434;2023-03-02T14:09:22;23.73;;;14.20;;
63567;SDS011;49715;42.386;20.434;2023-03-02T14:11:49;27.10;;;15.27;;
63567;SDS011;49715;42.386;20.434;2023-03-02T14:14:21;23.25;;;13.40;;
63567;SDS011;49715;42.386;20.434;2023-03-02T14:16:50;24.45;;;13.63;;
63567;SDS011;49715;42.386;20.434;2023-03-02T14:19:17;26.77;;;14.48;;
63567;SDS011;49715;42.386;20.434;2023-03-02T14:24:46;27.33;;;12.88;;
63567;SDS011;49715;42.386;20.434;2023-03-02T14:27:17;27.00;;;13.40;;
63567;SDS011;49715;42.386;20.434;2023-03-02T14:29:46;22.27;;;12.90;;
63567;SDS011;49715;42.386;20.434;2023-03-02T14:32:13;21.20;;;12.20;;
63567;SDS011;49715;42.386;20.434;2023-03-02T14:34:41;22.80;;;12.05;;
63567;SDS011;49715;42.386;20.434;2023-03-02T14:37:11;24.27;;;12.73;;
63567;SDS011;49715;42.386;20.434;2023-03-02T14:39:41;24.20;;;12.27;;
63567;SDS011;49715;42.386;20.434;2023-03-02T14:45:03;21.63;;;11.43;;
63567;SDS011;49715;42.386;20.434;2023-03-02T14:47:30;21.17;;;12.45;;
63567;SDS011;49715;42.386;20.434;2023-03-02T14:49:57;22.40;;;12.45;;
63567;SDS011;49715;42.386;20.434;2023-03-02T14:57:58;26.52;;;12.85;;
63567;SDS011;49715;42.386;20.434;2023-03-02T15:00:48;19.05;;;11.95;;
63567;SDS011;49715;42.386;20.434;2023-03-02T15:03:18;24.13;;;12.60;;
63567;SDS011;49715;42.386;20.434;2023-03-02T15:05:58;23.23;;;12.05;;
63567;SDS011;49715;42.386;20.434;2023-03-02T15:08:24;20.00;;;11.70;;
63567;SDS011;49715;42.386;20.434;2023-03-02T15:10:51;21.50;;;12.57;;
63567;SDS011;49715;42.386;20.434;2023-03-02T15:13:20;19.80;;;13.32;;
63567;SDS011;49715;42.386;20.434;2023-03-02T15:15:47;24.42;;;13.48;;
63567;SDS011;49715;42.386;20.434;2023-03-02T15:18:19;23.23;;;12.32;;
63567;SDS011;49715;42.386;20.434;2023-03-02T15:20:46;27.15;;;12.63;;
63567;SDS011;49715;42.386;20.434;2023-03-02T15:23:14;26.02;;;12.50;;
63567;SDS011;49715;42.386;20.434;2023-03-02T15:25:41;23.83;;;13.02;;
63567;SDS011;49715;42.386;20.434;2023-03-02T15:28:09;23.15;;;12.32;;
63567;SDS011;49715;42.386;20.434;2023-03-02T15:30:35;19.50;;;12.07;;
63567;SDS011;49715;42.386;20.434;2023-03-02T15:33:02;25.23;;;12.13;;
63567;SDS011;49715;42.386;20.434;2023-03-02T15:35:30;24.58;;;12.32;;
63567;SDS011;49715;42.386;20.434;2023-03-02T15:37:56;22.10;;;14.00;;
63567;SDS011;49715;42.386;20.434;2023-03-02T15:40:27;25.83;;;12.85;;
63567;SDS011;49715;42.386;20.434;2023-03-02T15:42:54;22.10;;;13.30;;
63567;SDS011;49715;42.386;20.434;2023-03-02T15:45:20;23.08;;;12.85;;
63567;SDS011;49715;42.386;20.434;2023-03-02T15:47:47;23.92;;;12.32;;
63567;SDS011;49715;42.386;20.434;2023-03-02T15:50:13;26.73;;;13.88;;
63567;SDS011;49715;42.386;20.434;2023-03-02T15:52:40;24.83;;;14.38;;
63567;SDS011;49715;42.386;20.434;2023-03-02T15:55:08;25.88;;;14.55;;
63567;SDS011;49715;42.386;20.434;2023-03-02T15:57:43;27.55;;;16.08;;
63567;SDS011;49715;42.386;20.434;2023-03-02T16:00:10;28.23;;;14.90;;
63567;SDS011;49715;42.386;20.434;2023-03-02T16:02:39;23.08;;;14.02;;
63567;SDS011;49715;42.386;20.434;2023-03-02T16:05:07;22.52;;;13.32;;
63567;SDS011;49715;42.386;20.434;2023-03-02T16:07:34;24.35;;;13.45;;
63567;SDS011;49715;42.386;20.434;2023-03-02T16:10:03;23.63;;;14.40;;
63567;SDS011;49715;42.386;20.434;2023-03-02T16:12:41;33.70;;;15.10;;
63567;SDS011;49715;42.386;20.434;2023-03-02T16:15:08;26.48;;;15.43;;
63567;SDS011;49715;42.386;20.434;2023-03-02T16:17:35;26.17;;;14.57;;
63567;SDS011;49715;42.386;20.434;2023-03-02T16:20:02;27.77;;;14.57;;